LFPO 191200Z 07004KT 010V120 CAVOK 23/08 Q1024 NOSIG

ElémentsDécodage
LFPO Station météo située sur l'aérodrome de PARIS Orly
191200Z émis le 19 du mois à 12h00 UTC
07004KT vent du 070°, 04 noeuds
010V120 vent de direction variable entre 010° et 120°
CAVOK Ceiling And Visibility OK
- Visibilité de 10 Km ou plus
- Pas de nuage au-dessous de 1500m ou au-dessous de l'altitude minimale du secteur la plus élevée (si>1500m) et absence de CB
- pas de temps présent significatif
23/08 température 23°C, point de rosée 08°C
 soit une humidité relative de 38%
Q1024 la pression au niveau de la mer (QNH) est de 1024 hPa
NOSIG Pas de changement significatif prévu au cours des deux heures suivant l'heure de l'observation